Houghton, MI (49931)

6:27 PM EST on December 03, 2016 (GMT -0500)
Shopko Heights | | Change Station

Elev 910 ft 47.12 °N, 88.59 °W | Updated 2 seconds ago

Overcast
Overcast
32.0 °F
Feels Like 27 °F
N
4.9
Wind Variable Wind from SSW
Gusts 6.0 mph

Today
High -- | Low -- °F
--% Chance of Precip.
Yesterday
High -- | Low -- °F
Precip. -- in
Pressure 30.21 in
Visibility 10.0 miles
Clouds Scattered Clouds 1400 ft
Overcast 4000 ft
Windchill 27 °F
Dew Point 31 °F
Humidity 93%
Rainfall 0.02 in
Snow Depth Not available.
8:22 AM 5:05 PM
Waxing Crescent, 18% visible
SPECI KCMX 032309Z AUTO 20006KT 10SM SCT014 OVC040 00/M02 A3021 RMK AO2 T00001022
Pressure 30.21 in
Visibility 10.0 miles
Clouds Scattered Clouds 1400 ft
Overcast 4000 ft
Windchill 27 °F
Dew Point 31 °F
Humidity 93%
Rainfall 0.02 in
Snow Depth Not available.
8:22 AM 5:05 PM
Waxing Crescent, 18% visible
SPECI KCMX 032309Z AUTO 20006KT 10SM SCT014 OVC040 00/M02 A3021 RMK AO2 T00001022

10-Day Weather Forecast

Almanac

Astronomy

Dec. 03, 2016 Rise Set
Actual Time
Civil Twilight
Nautical Twilight
Astronomical Twilight
Moon
Length of Visible Light
Length of Day
Tomorrow will be .
, % of the Moon is Illuminated

Today's Extremes

State Highs State Lows

Community

WunderPhotos

Upload Photos

1,955,540 photos uploaded!

WunderBlog® & News

Nearby

Air Quality

  Air Quality AQ Index Pollutant
Not available.

Snow Depth

Station Depth Elevation

Earthquake Activity

City Distance Mag. Time & Date
Minimum magnitude displayed is 2.5.

Coastal Water Temperatures

Place Temperature

Stations

Nearby Weather Stations

Station Location Temp. Windchill Dew Point Humidity Wind Precip. Elev Updated Type
                   

Watches & Warnings

There are currently no watches in effect.